Time;durP1;ratioP1;P1;durP2;ratioP2;P2;SDS_P1;SDS_P2;PMS_P1;PMS_P2;Temp;Humidity;BMP_temperature;BMP_pressure;BME280_temperature;BME280_humidity;BME280_pressure;Samples;Min_cycle;Max_cycle;Signal;HPM_P1;HPM_P2
2021/01/11 00:03:20;;;;;;;25.87;11.87;;;;;;;3.59;78.39;101012.94;8719851;33;20192;-73
2021/01/11 00:08:23;;;;;;;35.70;14.47;;;;;;;3.44;78.71;101018.66;8719824;33;21173;-71
2021/01/11 00:13:25;;;;;;;32.77;13.97;;;;;;;3.54;78.97;101004.28;8719210;33;20286;-71
2021/01/11 00:18:28;;;;;;;37.80;18.40;;;;;;;3.34;79.58;101012.75;8717731;33;20447;-71
2021/01/11 00:23:31;;;;;;;35.17;16.23;;;;;;;3.36;79.55;101007.44;8717984;33;20191;-71
2021/01/11 00:28:34;;;;;;;27.47;13.73;;;;;;;3.34;79.69;101010.97;8718658;33;20425;-72
2021/01/11 00:33:37;;;;;;;44.03;18.40;;;;;;;3.45;79.53;100997.47;8721033;33;20745;-72
2021/01/11 00:38:40;;;;;;;45.50;18.30;;;;;;;3.55;78.71;100995.44;8719053;33;20334;-72
2021/01/11 00:43:42;;;;;;;27.57;11.73;;;;;;;3.29;79.68;100985.59;8719037;33;20140;-72
2021/01/11 00:48:45;;;;;;;37.90;14.90;;;;;;;3.39;79.70;100992.34;8716737;33;20190;-72
2021/01/11 00:53:48;;;;;;;50.30;18.70;;;;;;;3.58;78.90;100990.06;8717513;33;20194;-72
2021/01/11 00:58:51;;;;;;;20.30;11.30;;;;;;;3.43;78.75;100994.03;8716848;33;20148;-72
2021/01/11 01:03:58;;;;;;;38.17;16.37;;;;;;;3.67;78.15;100981.88;8716558;33;20671;-73
2021/01/11 01:09:00;;;;;;;45.70;19.00;;;;;;;3.70;77.81;100994.13;8717864;33;20839;-73
2021/01/11 01:14:03;;;;;;;42.83;18.83;;;;;;;3.49;78.11;100971.84;8717210;33;20648;-72
2021/01/11 01:19:06;;;;;;;40.33;15.90;;;;;;;3.54;78.35;100978.72;8717320;33;20191;-73
2021/01/11 01:24:14;;;;;;;45.20;17.27;;;;;;;3.54;77.99;100981.38;8716881;33;20337;-73
2021/01/11 01:29:16;;;;;;;35.63;15.60;;;;;;;3.70;77.21;100986.19;8716933;33;21540;-72
2021/01/11 01:34:20;;;;;;;41.27;18.27;;;;;;;3.84;76.62;100985.81;8716607;33;21039;-73
2021/01/11 01:39:22;;;;;;;38.23;17.43;;;;;;;3.66;77.26;100988.06;8717228;33;20233;-72
2021/01/11 01:44:25;;;;;;;21.40;11.20;;;;;;;3.71;76.31;100987.97;8716484;33;20452;-72
2021/01/11 01:49:28;;;;;;;44.50;16.63;;;;;;;3.89;76.01;100986.53;8716364;33;20263;-72
2021/01/11 01:54:31;;;;;;;22.03;11.10;;;;;;;3.75;75.86;100985.16;8717348;33;20211;-73
2021/01/11 01:59:33;;;;;;;32.30;15.93;;;;;;;3.94;75.58;100979.34;8716694;33;20144;-72
2021/01/11 02:04:36;;;;;;;41.93;16.57;;;;;;;3.92;75.78;100974.13;8716346;33;20302;-72
2021/01/11 02:09:45;;;;;;;33.77;16.00;;;;;;;4.07;75.25;100975.41;8716464;33;20270;-73
2021/01/11 02:15:02;;;;;;;31.40;13.30;;;;;;;3.89;75.64;100970.69;8716330;33;21048;-72
2021/01/11 02:20:43;;;;;;;40.17;16.17;;;;;;;3.98;75.38;100979.22;8714304;33;20767;-73
2021/01/11 02:26:01;;;;;;;44.43;18.80;;;;;;;3.97;75.10;100964.25;8715128;33;20244;-72
2021/01/11 02:31:06;;;;;;;40.53;17.97;;;;;;;3.86;75.96;100973.41;8715851;33;20886;-72
2021/01/11 02:36:09;;;;;;;39.20;18.00;;;;;;;3.72;76.40;100957.97;8714148;33;20966;-72
2021/01/11 02:41:12;;;;;;;26.93;12.27;;;;;;;3.74;76.10;100972.00;8727072;33;21059;-73
2021/01/11 02:46:15;;;;;;;29.17;13.97;;;;;;;3.87;75.65;100962.81;8735294;33;20686;-72
2021/01/11 02:51:25;;;;;;;25.53;11.27;;;;;;;3.81;75.99;100960.31;8716178;33;20191;-73
2021/01/11 02:56:33;;;;;;;34.67;17.63;;;;;;;3.79;76.14;100951.59;8720617;33;20190;-72
2021/01/11 03:01:48;;;;;;;47.33;18.00;;;;;;;3.85;76.32;100954.03;8719311;33;20444;-72
2021/01/11 03:06:58;;;;;;;23.93;13.10;;;;;;;3.56;77.87;100953.13;8720777;33;21547;-72
2021/01/11 03:12:02;;;;;;;37.90;17.07;;;;;;;3.81;77.26;100940.97;8720752;33;20143;-73
2021/01/11 03:17:06;;;;;;;19.97;9.27;;;;;;;3.41;78.86;100942.13;8720773;33;20199;-72
2021/01/11 03:22:09;;;;;;;36.10;16.37;;;;;;;3.54;78.69;100940.88;8719271;33;20189;-72
2021/01/11 03:27:11;;;;;;;36.87;16.97;;;;;;;3.49;78.98;100945.44;8719025;33;21738;-72
2021/01/11 03:32:15;;;;;;;41.07;17.07;;;;;;;3.31;79.83;100952.94;8719555;33;20167;-72
2021/01/11 03:37:17;;;;;;;40.47;16.00;;;;;;;3.62;79.59;100936.25;8719504;33;20266;-72
2021/01/11 03:42:20;;;;;;;46.00;19.87;;;;;;;3.30;81.02;100937.16;8719381;33;20477;-72
2021/01/11 03:47:23;;;;;;;44.07;17.83;;;;;;;3.44;80.32;100923.56;8719102;33;20751;-72
2021/01/11 03:52:26;;;;;;;47.17;19.77;;;;;;;3.30;80.87;100923.94;8718888;33;20176;-72
2021/01/11 03:57:30;;;;;;;32.00;14.07;;;;;;;3.35;80.30;100911.47;8717514;33;20219;-73
2021/01/11 04:02:34;;;;;;;40.10;17.73;;;;;;;3.39;80.40;100905.19;8717100;33;20521;-72
2021/01/11 04:07:36;;;;;;;43.80;21.00;;;;;;;3.42;80.23;100899.81;8718592;33;20307;-72
2021/01/11 04:12:39;;;;;;;43.83;20.27;;;;;;;3.49;79.78;100903.16;8718903;33;20678;-72
2021/01/11 04:17:42;;;;;;;40.07;16.23;;;;;;;3.36;79.45;100897.34;8719137;33;20967;-72
2021/01/11 04:22:45;;;;;;;26.77;14.17;;;;;;;3.38;78.94;100899.97;8718523;33;20426;-73
2021/01/11 04:27:47;;;;;;;26.13;12.10;;;;;;;3.38;78.54;100914.03;8719081;33;20323;-72
2021/01/11 04:32:50;;;;;;;45.83;20.30;;;;;;;3.51;78.55;100893.38;8718724;33;20277;-72
2021/01/11 04:37:53;;;;;;;48.10;20.13;;;;;;;3.54;77.62;100888.03;8717622;33;20806;-72
2021/01/11 04:43:03;;;;;;;40.90;17.47;;;;;;;3.50;78.00;100889.03;8719222;33;20180;-72
2021/01/11 04:48:07;;;;;;;46.60;18.23;;;;;;;3.72;76.76;100889.25;8718097;33;20760;-71
2021/01/11 04:53:11;;;;;;;27.93;11.47;;;;;;;3.58;77.19;100894.09;8717335;33;20184;-71
2021/01/11 04:58:14;;;;;;;38.20;16.97;;;;;;;3.57;77.17;100893.22;8717701;33;20195;-71
2021/01/11 05:03:20;;;;;;;32.87;12.43;;;;;;;3.58;77.01;100875.59;8717268;33;20171;-72
2021/01/11 05:08:22;;;;;;;44.97;20.70;;;;;;;3.66;76.68;100871.81;8717740;33;20235;-71
2021/01/11 05:13:24;;;;;;;37.63;17.47;;;;;;;3.84;76.18;100872.13;8716843;33;20197;-72
2021/01/11 05:18:32;;;;;;;43.80;21.53;;;;;;;3.73;76.97;100867.19;8717678;33;20589;-73
2021/01/11 05:23:37;;;;;;;22.80;11.00;;;;;;;3.48;77.24;100864.41;8705400;33;21138;-71
2021/01/11 05:28:39;;;;;;;29.53;13.53;;;;;;;3.47;77.20;100867.97;8717926;33;20633;-71
2021/01/11 05:33:53;;;;;;;43.53;19.87;;;;;;;3.53;76.88;100863.38;8717865;33;20128;-70
2021/01/11 05:38:55;;;;;;;22.33;9.60;;;;;;;3.34;76.66;100859.53;8717886;33;20273;-71
2021/01/11 05:44:11;;;;;;;25.93;12.70;;;;;;;3.48;76.25;100861.78;8714985;33;20467;-71
2021/01/11 05:49:15;;;;;;;35.63;14.33;;;;;;;3.20;76.62;100872.28;8714712;33;20390;-73
2021/01/11 05:54:25;;;;;;;36.77;15.03;;;;;;;3.40;76.46;100847.94;8715792;33;20252;-73
2021/01/11 05:59:27;;;;;;;46.40;19.43;;;;;;;3.56;75.37;100854.50;8715519;33;20224;-71
2021/01/11 06:04:32;;;;;;;35.10;14.50;;;;;;;3.41;75.67;100857.59;8716117;33;20171;-72
2021/01/11 06:09:38;;;;;;;34.97;13.77;;;;;;;3.10;76.47;100846.16;8716394;33;20187;-71
2021/01/11 06:14:41;;;;;;;39.87;16.07;;;;;;;3.26;75.97;100849.22;8716472;33;20609;-72
2021/01/11 06:19:46;;;;;;;45.47;18.57;;;;;;;3.38;75.67;100847.13;8716248;33;20946;-72
2021/01/11 06:24:48;;;;;;;50.97;18.97;;;;;;;3.23;75.70;100848.44;8715557;33;20175;-70
2021/01/11 06:29:51;;;;;;;31.87;14.23;;;;;;;3.03;75.71;100841.97;8714689;33;20150;-72
2021/01/11 06:34:55;;;;;;;37.10;16.37;;;;;;;3.00;76.26;100863.16;8715666;33;20217;-71
2021/01/11 06:39:59;;;;;;;54.57;23.03;;;;;;;3.27;75.89;100836.88;8713834;33;20645;-72
2021/01/11 06:45:02;;;;;;;38.93;16.43;;;;;;;3.18;75.73;100834.50;8715428;33;20873;-72
2021/01/11 06:50:08;;;;;;;38.23;14.40;;;;;;;3.01;76.13;100820.00;8714528;33;20720;-73
2021/01/11 06:55:13;;;;;;;35.70;15.40;;;;;;;3.15;75.82;100848.66;8716150;33;20533;-72
2021/01/11 07:00:19;;;;;;;32.60;15.33;;;;;;;2.52;77.11;100846.88;8715769;33;20154;-72
2021/01/11 07:05:44;;;;;;;48.20;19.67;;;;;;;2.98;75.83;100850.91;8715050;33;20601;-72
2021/01/11 07:11:02;;;;;;;45.87;22.13;;;;;;;2.80;76.08;100852.31;8712764;33;20816;-72
2021/01/11 07:16:17;;;;;;;53.73;21.63;;;;;;;2.91;75.40;100839.69;8715023;33;20230;-72
2021/01/11 07:21:26;;;;;;;31.70;14.93;;;;;;;2.60;75.75;100831.72;8714667;33;20191;-72
2021/01/11 07:26:30;;;;;;;18.77;8.07;;;;;;;2.65;76.16;100835.09;8718436;33;21084;-71
2021/01/11 07:31:34;;;;;;;35.03;16.10;;;;;;;2.66;75.88;100844.72;8735141;33;20140;-71
2021/01/11 07:36:41;;;;;;;41.47;17.17;;;;;;;2.58;76.04;100866.06;8721750;33;20183;-70
2021/01/11 07:41:46;;;;;;;37.97;14.43;;;;;;;2.46;79.21;100847.91;8706287;33;20921;-70
2021/01/11 07:47:00;;;;;;;54.00;19.50;;;;;;;2.74;77.04;100831.34;8719843;33;20532;-71
2021/01/11 07:52:06;;;;;;;33.20;15.10;;;;;;;2.49;77.69;100834.63;8719131;33;20987;-72
2021/01/11 07:57:09;;;;;;;43.33;19.43;;;;;;;2.69;77.45;100834.13;8720105;33;20678;-72
2021/01/11 08:02:14;;;;;;;29.93;13.33;;;;;;;2.47;77.21;100823.28;8717277;33;20428;-72
2021/01/11 08:07:27;;;;;;;36.57;16.57;;;;;;;2.35;78.01;100837.63;8718425;33;20653;-72
2021/01/11 08:12:30;;;;;;;52.37;21.07;;;;;;;2.55;77.46;100796.69;8718381;33;21648;-72
2021/01/11 08:17:33;;;;;;;51.67;22.47;;;;;;;2.75;77.08;100804.94;8718338;33;20172;-70
2021/01/11 08:22:37;;;;;;;28.43;13.43;;;;;;;2.54;78.02;100782.63;8719011;33;20149;-72
2021/01/11 08:27:44;;;;;;;45.73;20.60;;;;;;;3.01;76.72;100774.28;8718490;33;20338;-71
2021/01/11 08:32:48;;;;;;;21.33;11.20;;;;;;;2.53;76.84;100777.41;8718391;33;20202;-71
2021/01/11 08:37:59;;;;;;;31.10;13.50;;;;;;;2.81;76.69;100782.78;8716052;33;20697;-72
2021/01/11 08:43:11;;;;;;;23.73;8.60;;;;;;;2.55;76.64;100786.13;8717148;33;20408;-72
2021/01/11 08:48:15;;;;;;;21.77;9.43;;;;;;;2.77;75.75;100779.38;8717630;33;20687;-71
2021/01/11 08:53:23;;;;;;;31.17;14.23;;;;;;;2.95;75.24;100785.03;8717665;33;20191;-71
2021/01/11 08:58:25;;;;;;;29.93;13.20;;;;;;;2.74;75.90;100807.59;8716924;33;20152;-72
2021/01/11 09:03:42;;;;;;;29.47;13.43;;;;;;;2.59;76.94;100790.44;8716235;33;20188;-71
2021/01/11 09:08:46;;;;;;;23.40;10.87;;;;;;;2.78;76.65;100774.94;8717241;33;20167;-71
2021/01/11 09:13:48;;;;;;;28.40;11.07;;;;;;;2.75;76.70;100765.34;8716373;33;20694;-72
2021/01/11 09:18:51;;;;;;;28.77;15.10;;;;;;;2.84;76.41;100782.69;8716274;33;20305;-70
2021/01/11 09:23:55;;;;;;;20.27;10.73;;;;;;;2.74;76.70;100773.28;8716564;33;20509;-73
2021/01/11 09:28:57;;;;;;;18.23;8.97;;;;;;;2.83;76.89;100762.50;8716692;33;20187;-70
2021/01/11 09:33:59;;;;;;;34.33;14.00;;;;;;;3.15;75.95;100772.06;8716192;33;20706;-71
2021/01/11 09:39:04;;;;;;;22.20;9.60;;;;;;;2.97;76.62;100775.28;8716146;33;21032;-72
2021/01/11 09:44:07;;;;;;;26.77;12.17;;;;;;;3.32;75.77;100784.81;8716835;33;20318;-70
2021/01/11 09:49:09;;;;;;;26.13;10.67;;;;;;;3.11;76.33;100784.53;8711941;33;20149;-71
2021/01/11 09:54:12;;;;;;;35.57;16.67;;;;;;;3.22;76.23;100786.84;8714853;33;20783;-71
2021/01/11 09:59:16;;;;;;;39.33;16.43;;;;;;;3.24;76.28;100794.72;8715720;33;20188;-71
2021/01/11 10:04:19;;;;;;;27.57;14.27;;;;;;;2.86;77.34;100778.22;8714750;33;20232;-70
2021/01/11 10:09:24;;;;;;;32.87;12.30;;;;;;;3.03;77.11;100780.38;8714977;33;20297;-71
2021/01/11 10:14:28;;;;;;;37.60;17.37;;;;;;;3.10;77.42;100763.47;8711809;33;20192;-71
2021/01/11 10:19:30;;;;;;;17.33;7.13;;;;;;;3.06;77.10;100760.03;8714937;33;20192;-71
2021/01/11 10:24:34;;;;;;;33.17;12.83;;;;;;;3.26;76.84;100748.00;8715545;33;20156;-70
2021/01/11 10:29:36;;;;;;;21.63;10.83;;;;;;;3.39;76.66;100745.84;8715005;33;20238;-71
2021/01/11 10:34:39;;;;;;;19.83;9.67;;;;;;;3.21;76.87;100739.34;8715327;33;20179;-72
2021/01/11 10:39:44;;;;;;;29.97;13.33;;;;;;;3.56;75.98;100740.88;8715005;33;20192;-72
2021/01/11 10:44:46;;;;;;;37.50;16.23;;;;;;;3.86;75.52;100728.44;8714759;33;20189;-72
2021/01/11 10:49:48;;;;;;;30.23;13.17;;;;;;;3.48;76.16;100725.31;8714756;33;20589;-71
2021/01/11 10:54:52;;;;;;;26.63;13.57;;;;;;;3.63;76.37;100721.28;8713108;33;20661;-72
2021/01/11 10:59:54;;;;;;;18.03;7.40;;;;;;;3.88;75.40;100705.47;8714786;33;20160;-71
2021/01/11 11:04:56;;;;;;;24.63;11.90;;;;;;;3.63;76.67;100697.50;8714918;33;20249;-71
2021/01/11 11:10:00;;;;;;;27.83;11.30;;;;;;;3.64;76.30;100696.56;8713292;33;20511;-71
2021/01/11 11:15:04;;;;;;;26.53;12.53;;;;;;;3.75;76.31;100691.78;8719890;33;20297;-71
2021/01/11 11:20:08;;;;;;;26.90;11.13;;;;;;;3.66;76.57;100701.81;8774909;33;20190;-71
2021/01/11 11:25:13;;;;;;;33.13;14.70;;;;;;;3.91;75.58;100671.00;8776282;33;20860;-71
2021/01/11 11:30:17;;;;;;;27.73;12.20;;;;;;;3.96;75.54;100645.25;8777174;33;20132;-72
2021/01/11 11:35:21;;;;;;;23.87;11.83;;;;;;;3.77;76.41;100633.59;8777991;33;20679;-70
2021/01/11 11:40:25;;;;;;;26.27;12.47;;;;;;;4.06;75.31;100629.06;8778342;33;20760;-72
2021/01/11 11:45:46;;;;;;;29.00;12.33;;;;;;;3.97;75.54;100628.47;8777869;33;20915;-72
2021/01/11 11:50:58;;;;;;;26.73;11.53;;;;;;;4.31;74.94;100627.25;8778445;33;20955;-73
2021/01/11 11:56:02;;;;;;;30.03;12.03;;;;;;;4.03;75.78;100616.81;8778552;33;20271;-73
2021/01/11 12:01:04;;;;;;;25.97;12.47;;;;;;;3.91;76.54;100599.63;8776451;33;20617;-70
2021/01/11 12:06:07;;;;;;;20.03;8.80;;;;;;;3.87;76.66;100602.44;8778084;33;20190;-71
2021/01/11 12:11:10;;;;;;;28.03;13.10;;;;;;;4.07;76.68;100591.16;8787447;33;20174;-71
2021/01/11 12:16:12;;;;;;;33.07;11.47;;;;;;;4.19;76.32;100594.19;8806036;33;20190;-71
2021/01/11 12:21:15;;;;;;;13.53;7.70;;;;;;;4.09;75.98;100568.16;8781192;33;20143;-70
2021/01/11 12:26:18;;;;;;;24.93;12.17;;;;;;;3.91;76.75;100541.47;8778302;33;20890;-71
2021/01/11 12:31:28;;;;;;;27.13;11.67;;;;;;;3.91;76.83;100545.88;8778013;33;20266;-70
2021/01/11 12:36:32;;;;;;;19.07;9.60;;;;;;;3.96;76.30;100550.09;8777442;33;20219;-71
2021/01/11 12:41:38;;;;;;;27.10;10.27;;;;;;;3.84;77.03;100541.72;8763064;33;20467;-70
2021/01/11 12:46:40;;;;;;;18.13;9.60;;;;;;;3.90;76.77;100538.91;8718020;33;20227;-70
2021/01/11 12:51:45;;;;;;;25.07;11.57;;;;;;;4.01;76.40;100520.84;8717802;33;20194;-70
2021/01/11 12:56:48;;;;;;;14.13;8.40;;;;;;;3.76;77.12;100527.03;8717656;33;20674;-70
2021/01/11 13:01:53;;;;;;;16.10;7.77;;;;;;;3.51;78.11;100516.50;8717968;33;20540;-70
2021/01/11 13:06:59;;;;;;;22.57;9.63;;;;;;;3.77;77.28;100491.75;8718365;33;20806;-70
2021/01/11 13:12:06;;;;;;;19.47;9.60;;;;;;;3.82;77.88;100496.03;8718652;33;20199;-71
2021/01/11 13:17:08;;;;;;;8.37;5.07;;;;;;;3.58;78.76;100498.63;8718057;33;20621;-71
2021/01/11 13:22:11;;;;;;;19.60;8.33;;;;;;;3.90;78.50;100484.25;8709335;33;20148;-70
2021/01/11 13:27:14;;;;;;;15.97;8.33;;;;;;;3.64;79.33;100471.97;8710786;33;20202;-71
2021/01/11 13:32:16;;;;;;;18.83;8.13;;;;;;;3.94;79.25;100469.97;8717932;33;20211;-72
2021/01/11 13:37:19;;;;;;;12.20;6.00;;;;;;;3.68;79.89;100470.09;8720942;33;20142;-72
2021/01/11 13:42:22;;;;;;;10.00;5.57;;;;;;;3.83;79.71;100472.16;8734137;33;20195;-70
2021/01/11 13:47:25;;;;;;;15.50;8.03;;;;;;;3.79;79.38;100468.78;8775145;33;20226;-71
2021/01/11 13:52:28;;;;;;;18.40;9.50;;;;;;;3.74;79.57;100460.16;8775170;33;21590;-73
2021/01/11 13:57:31;;;;;;;16.07;8.17;;;;;;;3.86;79.55;100426.25;8731702;33;20199;-72
2021/01/11 14:02:33;;;;;;;20.40;8.30;;;;;;;4.18;78.31;100435.56;8698014;33;20298;-70
2021/01/11 14:07:36;;;;;;;18.63;8.40;;;;;;;4.09;78.36;100436.81;8720026;33;20238;-72
2021/01/11 14:12:39;;;;;;;9.43;4.67;;;;;;;4.12;78.33;100402.31;8728142;33;20213;-72
2021/01/11 14:17:42;;;;;;;12.60;7.70;;;;;;;4.23;77.80;100423.03;8729689;33;20826;-72
2021/01/11 14:22:46;;;;;;;18.70;10.17;;;;;;;4.36;77.83;100418.97;8773909;33;20921;-72
2021/01/11 14:27:49;;;;;;;11.80;6.53;;;;;;;4.31;77.65;100420.94;8726018;33;20183;-72
2021/01/11 14:32:51;;;;;;;21.67;9.57;;;;;;;4.59;77.41;100428.59;8729303;33;20191;-71
2021/01/11 14:37:56;;;;;;;19.50;8.87;;;;;;;4.50;77.65;100406.94;8686976;33;20619;-72
2021/01/11 14:43:00;;;;;;;14.33;7.80;;;;;;;4.44;77.50;100410.72;8690758;33;20449;-72
2021/01/11 14:48:02;;;;;;;18.57;9.93;;;;;;;4.49;77.46;100392.00;8711597;33;20315;-71
2021/01/11 14:53:12;;;;;;;19.08;9.32;;;;;;;4.35;76.59;100392.56;8661552;33;20459;-71
2021/01/11 14:58:15;;;;;;;14.53;8.63;;;;;;;4.61;76.00;100412.69;8662086;33;20710;-70
2021/01/11 15:03:18;;;;;;;21.20;11.20;;;;;;;4.81;75.17;100393.31;8662089;33;20671;-71
2021/01/11 15:08:20;;;;;;;21.83;10.40;;;;;;;4.66;75.61;100365.69;8662708;33;20160;-71
2021/01/11 15:13:24;;;;;;;16.20;7.70;;;;;;;4.81;74.47;100340.38;8660791;33;20202;-72
2021/01/11 15:18:29;;;;;;;22.57;11.33;;;;;;;5.18;73.79;100339.56;8661494;33;20695;-72
2021/01/11 15:23:32;;;;;;;29.40;12.63;;;;;;;5.02;74.08;100344.72;8707828;33;21176;-72
2021/01/11 15:28:36;;;;;;;19.50;9.17;;;;;;;5.04;73.94;100332.25;8706637;33;20197;-72
2021/01/11 15:33:38;;;;;;;15.67;7.67;;;;;;;5.15;73.22;100338.84;8702248;33;20149;-73
2021/01/11 15:38:41;;;;;;;18.90;8.95;;;;;;;5.05;73.43;100309.28;8710014;33;20183;-72
2021/01/11 15:43:44;;;;;;;18.30;8.90;;;;;;;5.40;72.46;100317.41;8735023;33;20183;-71
2021/01/11 15:48:47;;;;;;;20.53;10.10;;;;;;;5.17;73.40;100324.63;8777900;33;20744;-71
2021/01/11 15:53:49;;;;;;;15.75;8.60;;;;;;;5.09;73.22;100334.69;8777439;33;20207;-71
2021/01/11 15:58:53;;;;;;;22.83;10.37;;;;;;;5.25;73.26;100313.69;8770994;33;20187;-72
2021/01/11 16:03:55;;;;;;;14.73;7.33;;;;;;;4.88;74.07;100307.38;8748250;33;20186;-73
2021/01/11 16:08:58;;;;;;;19.20;9.63;;;;;;;5.31;73.18;100298.34;8775908;33;20539;-71
2021/01/11 16:14:02;;;;;;;12.33;6.17;;;;;;;5.16;73.24;100292.91;8749333;33;20242;-73
2021/01/11 16:19:04;;;;;;;12.93;7.20;;;;;;;5.05;74.03;100293.41;8720036;33;21576;-73
2021/01/11 16:24:07;;;;;;;13.83;7.63;;;;;;;5.38;72.93;100287.50;8717756;33;20180;-72
2021/01/11 16:29:10;;;;;;;14.18;7.88;;;;;;;5.28;72.96;100274.66;8704812;33;20720;-73
2021/01/11 16:34:12;;;;;;;13.53;5.90;;;;;;;5.22;73.63;100276.75;8707285;33;20191;-70
2021/01/11 16:39:15;;;;;;;17.00;8.80;;;;;;;5.30;73.76;100254.25;8723096;33;20147;-71
2021/01/11 16:44:18;;;;;;;15.10;7.90;;;;;;;5.32;73.65;100260.34;8739004;33;20270;-71
2021/01/11 16:49:21;;;;;;;16.73;7.93;;;;;;;5.37;74.28;100249.50;8712294;33;20270;-71
2021/01/11 16:54:24;;;;;;;16.30;7.43;;;;;;;5.38;74.22;100240.66;8715129;33;20716;-71
2021/01/11 16:59:30;;;;;;;10.80;5.53;;;;;;;5.21;74.19;100237.91;8735207;33;21675;-73
2021/01/11 17:04:32;;;;;;;14.27;5.80;;;;;;;5.42;73.67;100242.22;8736826;33;20184;-71
2021/01/11 17:09:35;;;;;;;10.23;5.70;;;;;;;5.13;74.90;100215.31;8718275;33;20879;-71
2021/01/11 17:14:54;;;;;;;15.77;8.13;;;;;;;5.23;74.36;100215.72;8695988;33;21622;-73
2021/01/11 17:19:56;;;;;;;14.50;7.63;;;;;;;5.21;74.90;100206.13;8705975;33;20187;-72
2021/01/11 17:24:59;;;;;;;17.67;8.43;;;;;;;5.61;73.48;100188.31;8716830;33;20241;-73
2021/01/11 17:30:04;;;;;;;14.30;7.97;;;;;;;5.46;74.03;100184.66;8716000;33;20364;-73
2021/01/11 17:35:09;;;;;;;12.18;7.35;;;;;;;5.19;74.96;100177.09;8715609;33;20720;-72
2021/01/11 17:40:13;;;;;;;17.05;10.57;;;;;;;5.57;74.33;100187.63;8665045;33;20188;-73
2021/01/11 17:45:17;;;;;;;21.57;11.93;;;;;;;5.39;74.76;100172.63;8637172;33;20188;-73
2021/01/11 17:50:19;;;;;;;16.87;9.60;;;;;;;5.40;75.00;100179.63;8683304;33;20662;-71
2021/01/11 17:55:23;;;;;;;42.33;20.38;;;;;;;5.53;74.60;100184.25;8744602;33;20231;-71
2021/01/11 18:00:27;;;;;;;11.50;7.10;;;;;;;5.22;75.19;100179.59;8769019;33;20159;-71
2021/01/11 18:05:29;;;;;;;19.53;9.47;;;;;;;5.44;74.61;100175.91;8714907;33;20259;-71
2021/01/11 18:10:31;;;;;;;14.10;9.43;;;;;;;5.28;74.94;100165.19;8755396;33;20858;-71
2021/01/11 18:15:38;;;;;;;16.55;9.23;;;;;;;5.67;73.91;100159.72;8773834;33;20151;-72
2021/01/11 18:20:40;;;;;;;15.75;8.55;;;;;;;5.55;73.68;100171.78;8774104;33;20388;-71
2021/01/11 18:25:45;;;;;;;19.20;8.60;;;;;;;5.65;73.89;100163.38;8774014;33;20412;-72
2021/01/11 18:30:49;;;;;;;13.13;6.50;;;;;;;5.78;73.53;100143.25;8773968;33;20250;-71
2021/01/11 18:35:51;;;;;;;15.73;7.00;;;;;;;5.44;74.37;100126.41;8772683;33;20535;-71
2021/01/11 18:40:55;;;;;;;23.88;11.35;;;;;;;5.62;74.09;100127.28;8773160;33;20661;-72
2021/01/11 18:45:59;;;;;;;17.02;9.13;;;;;;;5.65;74.32;100120.97;8773501;33;20143;-72
2021/01/11 18:51:01;;;;;;;19.90;11.75;;;;;;;5.80;73.85;100136.94;8772373;33;20158;-72
2021/01/11 18:56:04;;;;;;;16.63;8.27;;;;;;;5.56;74.38;100120.50;8772672;33;20293;-71
2021/01/11 19:01:07;;;;;;;16.40;9.65;;;;;;;5.65;74.62;100119.19;8772774;33;20316;-72
2021/01/11 19:06:17;;;;;;;11.48;4.38;;;;;;;5.56;75.31;100117.84;8773318;33;22101;-71
2021/01/11 19:11:20;;;;;;;19.63;11.07;;;;;;;5.63;75.61;100110.47;8771475;33;20780;-71
2021/01/11 19:16:23;;;;;;;22.52;11.15;;;;;;;5.35;76.72;100095.94;8773570;33;20191;-73
2021/01/11 19:21:26;;;;;;;25.77;11.63;;;;;;;5.39;76.92;100088.69;8771187;33;21033;-72
2021/01/11 19:26:28;;;;;;;18.33;9.25;;;;;;;5.49;76.56;100089.09;8772019;33;20148;-71
2021/01/11 19:31:32;;;;;;;19.60;10.18;;;;;;;5.51;76.90;100066.00;8772555;33;20182;-71
2021/01/11 19:36:38;;;;;;;19.83;10.98;;;;;;;5.79;75.67;100044.25;8774854;33;20238;-72
2021/01/11 19:41:42;;;;;;;14.02;7.05;;;;;;;5.52;75.91;100065.94;8776936;33;21955;-71
2021/01/11 19:46:47;;;;;;;18.45;9.90;;;;;;;5.84;74.80;100047.53;8775608;33;20158;-71
2021/01/11 19:51:49;;;;;;;20.73;10.55;;;;;;;5.78;74.93;100040.72;8779068;33;20194;-71
2021/01/11 19:56:52;;;;;;;17.23;8.13;;;;;;;5.77;74.97;100040.81;8777112;33;20461;-71
2021/01/11 20:01:55;;;;;;;17.40;9.88;;;;;;;5.56;75.56;100025.09;8711636;33;20190;-73
2021/01/11 20:06:58;;;;;;;11.70;6.28;;;;;;;5.53;75.78;100021.75;8718768;33;20179;-72
2021/01/11 20:12:00;;;;;;;11.27;7.28;;;;;;;5.51;75.46;100016.53;8744529;33;20186;-71
2021/01/11 20:17:04;;;;;;;12.43;7.18;;;;;;;5.45;76.15;99997.44;8776681;33;20449;-72
2021/01/11 20:22:06;;;;;;;11.63;4.97;;;;;;;5.64;75.07;99969.03;8774949;33;20992;-72
2021/01/11 20:27:09;;;;;;;21.20;9.43;;;;;;;5.62;75.56;99985.97;8776809;33;20451;-73
2021/01/11 20:32:12;;;;;;;14.00;7.07;;;;;;;5.76;75.04;99983.47;8776552;33;20183;-73
2021/01/11 20:37:14;;;;;;;14.63;8.35;;;;;;;5.60;75.87;99964.84;8732417;33;20182;-71
2021/01/11 20:42:17;;;;;;;16.13;8.30;;;;;;;5.56;75.78;99950.88;8774366;33;21068;-72
2021/01/11 20:47:20;;;;;;;24.48;13.25;;;;;;;5.81;75.44;99952.22;8775802;33;20239;-71
2021/01/11 20:52:22;;;;;;;16.70;9.50;;;;;;;5.87;75.07;99953.69;8775992;33;20811;-71
2021/01/11 20:57:25;;;;;;;9.85;5.28;;;;;;;5.87;74.91;99935.13;8755249;33;20510;-71
2021/01/11 21:02:32;;;;;;;21.20;10.18;;;;;;;5.85;75.24;99937.03;8716895;33;20249;-72
2021/01/11 21:07:39;;;;;;;24.20;12.48;;;;;;;6.16;74.27;99925.59;8716917;33;20193;-73
2021/01/11 21:12:43;;;;;;;24.65;11.73;;;;;;;6.08;74.70;99933.13;8717261;33;20305;-73
2021/01/11 21:17:46;;;;;;;21.27;11.07;;;;;;;5.83;76.91;99928.28;8704675;33;20275;-71
2021/01/11 21:22:49;;;;;;;14.77;7.60;;;;;;;5.52;79.91;99914.91;8775222;33;20171;-71
2021/01/11 21:27:52;;;;;;;17.63;9.93;;;;;;;5.31;81.04;99916.88;8775620;33;20561;-73
2021/01/11 21:32:56;;;;;;;24.60;13.43;;;;;;;5.24;82.04;99904.94;8777316;33;20148;-74
2021/01/11 21:37:59;;;;;;;18.63;8.73;;;;;;;5.32;81.96;99905.38;8773352;33;20334;-74
2021/01/11 21:43:02;;;;;;;14.60;7.77;;;;;;;5.03;83.25;99898.09;8782899;33;20452;-74
2021/01/11 21:48:07;;;;;;;21.63;10.07;;;;;;;4.91;83.17;99891.66;8778733;33;20152;-74
2021/01/11 21:53:09;;;;;;;30.15;13.65;;;;;;;5.14;83.81;99869.25;8756320;33;20772;-73
2021/01/11 21:58:12;;;;;;;29.07;15.20;;;;;;;5.26;83.51;99865.94;8773818;33;21427;-73
2021/01/11 22:03:15;;;;;;;25.77;10.77;;;;;;;5.25;83.24;99892.53;8775758;33;20693;-74
2021/01/11 22:08:17;;;;;;;27.13;12.83;;;;;;;5.28;83.76;99844.69;8774890;33;20231;-74
2021/01/11 22:13:20;;;;;;;26.67;12.23;;;;;;;5.16;84.14;99832.13;8774361;33;21404;-74
2021/01/11 22:18:23;;;;;;;34.43;16.13;;;;;;;5.18;84.49;99831.06;8773082;33;20682;-74
2021/01/11 22:23:25;;;;;;;22.30;10.98;;;;;;;5.12;84.74;99810.22;8772156;33;20221;-74
2021/01/11 22:28:28;;;;;;;29.83;15.00;;;;;;;5.26;84.39;99806.81;8774253;33;20515;-73
2021/01/11 22:33:33;;;;;;;30.83;15.27;;;;;;;5.21;84.70;99799.16;8774445;33;20411;-72
2021/01/11 22:38:35;;;;;;;26.13;12.33;;;;;;;5.39;84.34;99799.94;8774453;33;20163;-75
2021/01/11 22:43:38;;;;;;;22.65;10.10;;;;;;;5.13;84.91;99804.00;8773966;33;20304;-75
2021/01/11 22:48:41;;;;;;;24.27;13.40;;;;;;;5.20;85.30;99794.78;8773910;33;20188;-75
2021/01/11 22:53:44;;;;;;;17.43;9.33;;;;;;;5.06;86.10;99789.38;8773786;33;20522;-74
2021/01/11 22:58:49;;;;;;;27.17;12.63;;;;;;;5.07;85.91;99780.47;8771821;33;20725;-74
2021/01/11 23:03:54;;;;;;;15.70;8.50;;;;;;;5.22;85.51;99786.75;8773847;33;20421;-74
2021/01/11 23:08:56;;;;;;;17.50;7.33;;;;;;;5.38;85.09;99765.59;8774466;33;20182;-75
2021/01/11 23:13:59;;;;;;;24.73;10.98;;;;;;;5.32;85.32;99770.28;8779294;33;20500;-74
2021/01/11 23:19:02;;;;;;;17.17;9.40;;;;;;;5.20;86.30;99762.16;8777826;33;20175;-74
2021/01/11 23:24:06;;;;;;;20.65;10.90;;;;;;;5.27;85.65;99745.84;8778427;33;20269;-74
2021/01/11 23:29:08;;;;;;;15.85;8.30;;;;;;;5.27;85.87;99751.13;8778713;33;20183;-75